createdAt,value
2023-05-24T00:01:59.756Z,99046.19
2023-05-24T00:04:30.144Z,99045.75
2023-05-24T00:06:57.010Z,99051.38
2023-05-24T00:09:23.879Z,99058.16
2023-05-24T00:11:50.491Z,99061.69
2023-05-24T00:14:17.102Z,99058.72
2023-05-24T00:16:43.758Z,99059.94
2023-05-24T00:19:11.273Z,99056.19
2023-05-24T00:21:38.374Z,99055.72
2023-05-24T00:24:05.210Z,99059.72
2023-05-24T00:26:33.279Z,99062.50
2023-05-24T00:28:59.778Z,99058.66
2023-05-24T00:31:26.306Z,99060.63
2023-05-24T00:33:52.824Z,99062.91
2023-05-24T00:36:19.476Z,99061.78
2023-05-24T00:38:46.014Z,99065.47
2023-05-24T00:41:12.618Z,99068.16
2023-05-24T00:43:39.214Z,99066.03
2023-05-24T00:46:18.010Z,99065.47
2023-05-24T00:48:45.960Z,99064.06
2023-05-24T00:51:14.536Z,99057.88
2023-05-24T00:53:44.971Z,99053.00
2023-05-24T00:56:22.030Z,99056.44
2023-05-24T00:58:50.423Z,99048.63
2023-05-24T01:01:17.088Z,99054.22
2023-05-24T01:03:55.704Z,99047.50
2023-05-24T01:06:23.378Z,99044.81
2023-05-24T01:09:08.325Z,99046.66
2023-05-24T01:11:59.413Z,99045.84
2023-05-24T01:14:41.721Z,99048.97
2023-05-24T01:17:51.777Z,99049.16
2023-05-24T01:20:22.508Z,99045.25
2023-05-24T01:23:07.227Z,99038.34
2023-05-24T01:25:49.731Z,99035.50
2023-05-24T01:28:27.599Z,99039.38
2023-05-24T01:31:04.259Z,99045.41
2023-05-24T01:33:31.053Z,99044.38
2023-05-24T01:35:57.599Z,99040.41
2023-05-24T01:38:29.588Z,99045.13
2023-05-24T01:41:13.437Z,99046.44
2023-05-24T01:43:54.568Z,99048.63
2023-05-24T01:46:37.776Z,99056.25
2023-05-24T01:49:30.805Z,99055.22
2023-05-24T01:52:14.412Z,99057.94
2023-05-24T01:54:47.686Z,99052.03
2023-05-24T01:57:15.388Z,99046.81
2023-05-24T01:59:45.351Z,99041.91
2023-05-24T02:02:12.683Z,99046.44
2023-05-24T02:04:40.109Z,99050.84
2023-05-24T02:07:22.221Z,99043.91
2023-05-24T02:09:48.773Z,99048.81
2023-05-24T02:12:15.296Z,99046.91
2023-05-24T02:14:53.296Z,99048.19
2023-05-24T02:17:26.908Z,99048.34
2023-05-24T02:19:53.633Z,99051.50
2023-05-24T02:22:22.266Z,99044.31
2023-05-24T02:24:48.899Z,99042.22
2023-05-24T02:27:15.436Z,99037.00
2023-05-24T02:29:42.118Z,99033.25
2023-05-24T02:32:08.824Z,99030.06
2023-05-24T02:34:35.650Z,99027.69
2023-05-24T02:37:07.205Z,99020.13
2023-05-24T02:39:33.784Z,99016.72
2023-05-24T02:42:00.521Z,99014.56
2023-05-24T02:44:27.040Z,99016.06
2023-05-24T02:46:53.577Z,99015.16
2023-05-24T02:49:20.090Z,99010.53
2023-05-24T02:51:46.614Z,99014.00
2023-05-24T02:54:13.158Z,99008.69
2023-05-24T02:56:39.821Z,99004.03
2023-05-24T02:59:06.447Z,99015.13
2023-05-24T03:01:34.376Z,99034.97
2023-05-24T03:04:01.088Z,99032.31
2023-05-24T03:06:27.763Z,99033.56
2023-05-24T03:08:54.445Z,99035.06
2023-05-24T03:11:24.068Z,99029.44
2023-05-24T03:13:52.903Z,99019.78
2023-05-24T03:16:19.873Z,99022.00
2023-05-24T03:18:46.795Z,99020.56
2023-05-24T03:21:13.366Z,99026.94
2023-05-24T03:23:39.950Z,99019.28
2023-05-24T03:26:07.327Z,99025.00
2023-05-24T03:28:33.880Z,99028.31
2023-05-24T03:31:00.909Z,99031.75
2023-05-24T03:33:27.425Z,99029.78
2023-05-24T03:35:53.966Z,99019.22
2023-05-24T03:38:20.523Z,99019.31
2023-05-24T03:40:47.004Z,99031.16
2023-05-24T03:43:28.180Z,99027.09
2023-05-24T03:45:56.280Z,99022.38
2023-05-24T03:48:28.119Z,99029.72
2023-05-24T03:50:54.649Z,99032.19
2023-05-24T03:53:30.638Z,99026.56
2023-05-24T03:55:57.123Z,99036.19
2023-05-24T03:58:23.699Z,99032.69
2023-05-24T04:00:50.818Z,99036.63
2023-05-24T04:03:20.041Z,99039.41
2023-05-24T04:05:47.384Z,99038.72
2023-05-24T04:08:15.025Z,99041.47
2023-05-24T04:10:42.202Z,99046.09
2023-05-24T04:13:09.249Z,99048.13
2023-05-24T04:15:36.091Z,99037.56
2023-05-24T04:18:03.672Z,99041.81
2023-05-24T04:20:30.378Z,99043.28
2023-05-24T04:22:57.059Z,99046.00
2023-05-24T04:25:23.795Z,99056.03
2023-05-24T04:27:50.454Z,99044.34
2023-05-24T04:30:21.259Z,99052.63
2023-05-24T04:32:48.477Z,99057.50
2023-05-24T04:35:20.648Z,99056.47
2023-05-24T04:37:48.341Z,99059.78
2023-05-24T04:40:16.317Z,99071.28
2023-05-24T04:42:43.195Z,99067.44
2023-05-24T04:45:18.702Z,99067.66
2023-05-24T04:47:45.318Z,99070.47
2023-05-24T04:50:15.090Z,99078.91
2023-05-24T04:52:41.781Z,99068.59
2023-05-24T04:55:08.831Z,99074.59
2023-05-24T04:57:35.445Z,99081.09
2023-05-24T05:00:02.111Z,99073.13
2023-05-24T05:02:28.979Z,99078.53
2023-05-24T05:04:55.537Z,99085.25
2023-05-24T05:07:22.468Z,99080.00
2023-05-24T05:09:49.050Z,99084.16
2023-05-24T05:12:15.955Z,99082.94
2023-05-24T05:14:44.978Z,99084.16
2023-05-24T05:17:11.466Z,99091.56
2023-05-24T05:19:43.958Z,99082.34
2023-05-24T05:22:10.918Z,99092.91
2023-05-24T05:24:39.820Z,99092.28
2023-05-24T05:27:06.672Z,99089.84
2023-05-24T05:29:33.216Z,99089.06
2023-05-24T05:31:59.742Z,99086.72
2023-05-24T05:34:26.284Z,99084.69
2023-05-24T05:36:55.126Z,99078.75
2023-05-24T05:39:21.665Z,99086.28
2023-05-24T05:41:48.238Z,99092.63
2023-05-24T05:44:15.008Z,99083.19
2023-05-24T05:46:55.262Z,99087.16
2023-05-24T05:49:21.745Z,99081.91
2023-05-24T05:51:49.357Z,99063.59
2023-05-24T05:54:18.279Z,99062.66
2023-05-24T05:56:50.532Z,99062.22
2023-05-24T05:59:17.427Z,99061.34
2023-05-24T06:01:49.003Z,99053.31
2023-05-24T06:04:16.376Z,99049.06
2023-05-24T06:06:45.272Z,99045.94
2023-05-24T06:09:12.098Z,99044.41
2023-05-24T06:11:39.735Z,99043.44
2023-05-24T06:14:07.037Z,99042.72
2023-05-24T06:16:34.016Z,99049.28
2023-05-24T06:19:06.090Z,99049.03
2023-05-24T06:21:33.445Z,99045.19
2023-05-24T06:24:02.411Z,99050.47
2023-05-24T06:26:28.926Z,99061.19
2023-05-24T06:28:56.186Z,99060.16
2023-05-24T06:31:22.925Z,99062.84
2023-05-24T06:33:59.727Z,99070.03
2023-05-24T06:36:30.010Z,99066.75
2023-05-24T06:38:56.597Z,99066.56
2023-05-24T06:41:27.048Z,99082.59
2023-05-24T06:43:53.687Z,99081.69
2023-05-24T06:46:23.305Z,99098.84
2023-05-24T06:48:49.929Z,99086.06
2023-05-24T06:51:17.117Z,99083.66
2023-05-24T06:53:43.613Z,99089.88
2023-05-24T06:56:10.174Z,99090.34
2023-05-24T06:58:36.731Z,99101.56
2023-05-24T07:01:05.044Z,99095.50
2023-05-24T07:03:32.409Z,99100.72
2023-05-24T07:05:59.157Z,99097.94
2023-05-24T07:08:25.729Z,99099.88
2023-05-24T07:10:57.067Z,99111.13
2023-05-24T07:13:28.464Z,99110.47
2023-05-24T07:15:54.992Z,99104.72
2023-05-24T07:18:21.583Z,99105.94
2023-05-24T07:20:48.233Z,99112.78
2023-05-24T07:23:18.152Z,99098.72
2023-05-24T07:25:44.693Z,99110.06
2023-05-24T07:28:11.511Z,99103.44
2023-05-24T07:30:39.341Z,99103.25
2023-05-24T07:33:05.956Z,99109.84
2023-05-24T07:35:33.918Z,99112.66
2023-05-24T07:38:26.956Z,99108.97
2023-05-24T07:40:56.155Z,99108.44
2023-05-24T07:43:22.713Z,99106.66
2023-05-24T07:45:55.687Z,99102.41
2023-05-24T07:48:24.108Z,99097.56
2023-05-24T07:51:09.079Z,99104.22
2023-05-24T07:53:37.596Z,99091.28
2023-05-24T07:56:04.434Z,99102.00
2023-05-24T07:58:31.703Z,99100.78
2023-05-24T08:00:58.293Z,99103.44
2023-05-24T08:03:25.939Z,99101.66
2023-05-24T08:05:53.463Z,99100.13
2023-05-24T08:08:20.335Z,99103.72
2023-05-24T08:10:46.899Z,99106.66
2023-05-24T08:13:13.462Z,99101.50
2023-05-24T08:15:40.125Z,99095.09
2023-05-24T08:18:11.596Z,99096.56
2023-05-24T08:20:41.091Z,99097.97
2023-05-24T08:23:08.097Z,99101.22
2023-05-24T08:25:34.593Z,99102.38
2023-05-24T08:28:01.298Z,99099.75
2023-05-24T08:30:27.950Z,99101.16
2023-05-24T08:32:54.572Z,99111.19
2023-05-24T08:35:22.126Z,99103.38
2023-05-24T08:37:49.566Z,99112.06
2023-05-24T08:40:16.701Z,99103.75
2023-05-24T08:42:45.108Z,99108.88
2023-05-24T08:45:13.900Z,99106.50
2023-05-24T08:47:41.034Z,99098.25
2023-05-24T08:50:08.699Z,99096.38
2023-05-24T08:52:36.671Z,99094.78
2023-05-24T08:55:07.375Z,99091.06
2023-05-24T08:57:35.725Z,99092.75
2023-05-24T09:00:02.358Z,99088.78
2023-05-24T09:02:30.931Z,99093.09
2023-05-24T09:04:59.496Z,99091.81
2023-05-24T09:07:26.860Z,99088.56
2023-05-24T09:10:06.740Z,99082.78
2023-05-24T09:12:38.588Z,99090.00
2023-05-24T09:15:17.472Z,99095.22
2023-05-24T09:17:44.346Z,99095.81
2023-05-24T09:20:13.309Z,99097.97
2023-05-24T09:22:43.032Z,99103.13
2023-05-24T09:25:14.104Z,99099.25
2023-05-24T09:27:41.459Z,99099.63
2023-05-24T09:30:12.420Z,99092.91
2023-05-24T09:32:39.270Z,99095.88
2023-05-24T09:35:09.968Z,99104.34
2023-05-24T09:37:38.755Z,99104.13
2023-05-24T09:40:10.908Z,99097.47
2023-05-24T09:42:38.057Z,99094.13
2023-05-24T09:45:12.132Z,99095.44
2023-05-24T09:47:54.854Z,99096.06
2023-05-24T09:50:21.643Z,99093.38
2023-05-24T09:52:48.286Z,99084.28
2023-05-24T09:55:16.266Z,99084.66
2023-05-24T09:58:04.457Z,99079.84
2023-05-24T10:00:41.290Z,99078.22
2023-05-24T10:03:15.094Z,99086.75
2023-05-24T10:05:46.666Z,99090.88
2023-05-24T10:08:14.560Z,99074.09
2023-05-24T10:10:43.365Z,99077.41
2023-05-24T10:13:11.550Z,99085.91
2023-05-24T10:15:38.473Z,99089.63
2023-05-24T10:18:10.623Z,99100.63
2023-05-24T10:20:41.084Z,99098.59
2023-05-24T10:23:12.934Z,99093.25
2023-05-24T10:25:51.077Z,99094.66
2023-05-24T10:28:21.457Z,99096.22
2023-05-24T10:31:03.199Z,99090.44
2023-05-24T10:33:34.542Z,99084.34
2023-05-24T10:36:03.937Z,99084.91
2023-05-24T10:38:33.903Z,99086.56
2023-05-24T10:41:00.690Z,99078.03
2023-05-24T10:43:27.410Z,99069.53
2023-05-24T10:45:54.003Z,99074.88
2023-05-24T10:48:26.270Z,99076.91
2023-05-24T10:50:53.037Z,99078.88
2023-05-24T10:53:27.286Z,99076.19
2023-05-24T10:56:01.062Z,99070.66
2023-05-24T10:58:58.844Z,99068.44
2023-05-24T11:01:33.557Z,99067.88
2023-05-24T11:04:18.185Z,99072.88
2023-05-24T11:07:01.561Z,99067.88
2023-05-24T11:09:28.263Z,99072.75
2023-05-24T11:12:00.693Z,99054.50
2023-05-24T11:14:29.363Z,99062.25
2023-05-24T11:16:57.855Z,99057.88
2023-05-24T11:19:32.804Z,99048.63
2023-05-24T11:22:00.956Z,99046.75
2023-05-24T11:24:34.218Z,99058.66
2023-05-24T11:27:05.309Z,99054.53
2023-05-24T11:29:31.933Z,99048.00
2023-05-24T11:32:07.873Z,99045.19
2023-05-24T11:34:35.224Z,99050.19
2023-05-24T11:37:03.223Z,99047.28
2023-05-24T11:39:35.466Z,99044.78
2023-05-24T11:42:06.569Z,99051.53
2023-05-24T11:44:34.202Z,99052.09
2023-05-24T11:47:07.368Z,99048.38
2023-05-24T11:49:34.716Z,99048.25
2023-05-24T11:52:02.639Z,99045.78
2023-05-24T11:54:30.191Z,99056.28
2023-05-24T11:56:57.300Z,99057.19
2023-05-24T11:59:30.974Z,99057.22
2023-05-24T12:02:04.403Z,99060.56
2023-05-24T12:04:33.139Z,99053.44
2023-05-24T12:07:00.463Z,99057.78
2023-05-24T12:09:27.930Z,99065.00
2023-05-24T12:11:55.310Z,99068.59
2023-05-24T12:14:32.872Z,99080.19
2023-05-24T12:17:00.947Z,99078.03
2023-05-24T12:19:38.839Z,99080.63
2023-05-24T12:22:12.712Z,99082.28
2023-05-24T12:24:39.244Z,99078.19
2023-05-24T12:27:13.929Z,99080.34
2023-05-24T12:29:46.830Z,99077.81
2023-05-24T12:32:14.667Z,99077.53
2023-05-24T12:34:43.706Z,99081.34
2023-05-24T12:37:21.254Z,99076.72
2023-05-24T12:39:51.240Z,99077.84
2023-05-24T12:42:19.502Z,99079.47
2023-05-24T12:44:46.052Z,99072.72
2023-05-24T12:47:12.818Z,99074.56
2023-05-24T12:49:45.126Z,99076.59
2023-05-24T12:52:12.608Z,99074.91
2023-05-24T12:54:42.005Z,99078.66
2023-05-24T12:57:09.103Z,99075.31
2023-05-24T12:59:35.667Z,99084.56
2023-05-24T13:02:02.510Z,99084.69
2023-05-24T13:04:31.506Z,99083.00
2023-05-24T13:06:58.030Z,99079.16
2023-05-24T13:09:25.951Z,99080.97
2023-05-24T13:11:54.087Z,99080.13
2023-05-24T13:14:21.325Z,99077.59
2023-05-24T13:17:02.376Z,99075.75
2023-05-24T13:19:29.487Z,99089.06
2023-05-24T13:21:56.064Z,99083.63
2023-05-24T13:24:23.177Z,99074.69
2023-05-24T13:26:52.256Z,99080.66
2023-05-24T13:29:34.101Z,99077.28
2023-05-24T13:32:03.637Z,99074.44
2023-05-24T13:34:41.508Z,99080.56
2023-05-24T13:37:08.764Z,99069.31
2023-05-24T13:39:35.526Z,99071.78
2023-05-24T13:42:02.592Z,99067.56
2023-05-24T13:44:29.453Z,99060.28
2023-05-24T13:46:56.568Z,99064.06
2023-05-24T13:49:23.205Z,99059.16
2023-05-24T13:51:50.477Z,99051.19
2023-05-24T13:54:17.521Z,99058.03
2023-05-24T13:56:44.846Z,99058.50
2023-05-24T13:59:11.975Z,99058.19
2023-05-24T14:01:39.139Z,99048.81
2023-05-24T14:04:07.014Z,99044.94
2023-05-24T14:06:48.784Z,99053.03
2023-05-24T14:09:15.566Z,99047.13
2023-05-24T14:11:42.121Z,99058.50
2023-05-24T14:16:38.128Z,99068.41
2023-05-24T14:19:04.703Z,99058.19
2023-05-24T14:21:32.307Z,99061.94
2023-05-24T14:23:58.960Z,99057.66
2023-05-24T14:26:25.528Z,99053.69
2023-05-24T14:28:55.257Z,99047.69
2023-05-24T14:31:25.878Z,99049.78
2023-05-24T14:33:52.509Z,99045.84
2023-05-24T14:36:19.243Z,99044.88
2023-05-24T14:38:46.170Z,99050.91
2023-05-24T14:41:12.813Z,99054.31
2023-05-24T14:43:40.297Z,99044.63
2023-05-24T14:46:06.860Z,99048.56
2023-05-24T14:48:33.393Z,99041.00
2023-05-24T14:50:59.969Z,99037.50
2023-05-24T14:53:26.585Z,99045.53
2023-05-24T14:55:54.299Z,99045.75
2023-05-24T14:58:21.082Z,99050.41
2023-05-24T15:00:47.985Z,99047.75
2023-05-24T15:03:14.985Z,99051.28
2023-05-24T15:05:42.779Z,99045.28
2023-05-24T15:08:13.694Z,99053.25
2023-05-24T15:10:40.591Z,99050.19
2023-05-24T15:13:08.046Z,99044.34
2023-05-24T15:15:34.551Z,99042.84
2023-05-24T15:18:01.231Z,99035.56
2023-05-24T15:20:28.040Z,99033.88
2023-05-24T15:22:54.870Z,99033.69
2023-05-24T15:25:22.246Z,99045.25
2023-05-24T15:27:48.864Z,99039.59
2023-05-24T15:30:19.956Z,99042.13
2023-05-24T15:32:46.826Z,99040.72
2023-05-24T15:35:17.335Z,99045.41
2023-05-24T15:37:43.917Z,99044.81
2023-05-24T15:40:13.688Z,99047.19
2023-05-24T15:42:40.274Z,99047.69
2023-05-24T15:45:07.624Z,99053.28
2023-05-24T15:47:39.477Z,99041.31
2023-05-24T15:50:08.448Z,99057.78
2023-05-24T15:52:36.023Z,99049.72
2023-05-24T15:55:02.558Z,99050.81
2023-05-24T15:57:29.077Z,99055.88
2023-05-24T15:59:55.589Z,99057.19
2023-05-24T16:02:22.383Z,99050.94
2023-05-24T16:04:49.974Z,99052.38
2023-05-24T16:07:18.066Z,99058.44
2023-05-24T16:09:46.758Z,99070.00
2023-05-24T16:12:13.338Z,99063.00
2023-05-24T16:14:39.891Z,99062.28
2023-05-24T16:17:06.661Z,99064.91
2023-05-24T16:19:36.126Z,99070.72
2023-05-24T16:22:03.085Z,99065.28
2023-05-24T16:24:29.606Z,99063.00
2023-05-24T16:26:57.322Z,99064.91
2023-05-24T16:29:24.579Z,99061.41
2023-05-24T16:31:51.086Z,99058.63
2023-05-24T16:34:38.749Z,99058.41
2023-05-24T16:37:11.632Z,99056.94
2023-05-24T16:39:38.571Z,99061.41
2023-05-24T16:42:07.043Z,99062.84
2023-05-24T16:44:33.621Z,99057.19
2023-05-24T16:47:00.153Z,99064.69
2023-05-24T16:49:26.641Z,99058.41
2023-05-24T16:51:53.177Z,99056.00
2023-05-24T16:54:19.759Z,99046.22
2023-05-24T16:56:46.300Z,99041.78
2023-05-24T16:59:12.884Z,99045.63
2023-05-24T17:01:40.109Z,99046.72
2023-05-24T17:04:07.053Z,99050.22
2023-05-24T17:06:33.659Z,99049.25
2023-05-24T17:09:00.186Z,99056.25
2023-05-24T17:11:26.668Z,99058.06
2023-05-24T17:13:53.196Z,99054.19
2023-05-24T17:16:20.597Z,99051.06
2023-05-24T17:18:47.328Z,99051.56
2023-05-24T17:21:14.036Z,99054.13
2023-05-24T17:23:40.649Z,99054.53
2023-05-24T17:26:11.349Z,99054.91
2023-05-24T17:28:37.853Z,99052.16
2023-05-24T17:31:04.540Z,99050.47
2023-05-24T17:33:41.377Z,99049.13
2023-05-24T17:36:09.449Z,99063.47
2023-05-24T17:38:39.506Z,99059.00
2023-05-24T17:41:09.645Z,99068.41
2023-05-24T17:43:39.112Z,99065.63
2023-05-24T17:46:08.309Z,99057.59
2023-05-24T17:48:37.340Z,99056.72
2023-05-24T17:51:07.443Z,99051.91
2023-05-24T17:53:35.293Z,99051.84
2023-05-24T17:56:03.168Z,99051.16
2023-05-24T17:58:30.860Z,99046.09
2023-05-24T18:00:58.660Z,99043.44
2023-05-24T18:03:25.344Z,99049.34
2023-05-24T18:05:51.881Z,99054.41
2023-05-24T18:08:18.985Z,99053.28
2023-05-24T18:10:45.806Z,99054.91
2023-05-24T18:13:12.607Z,99059.97
2023-05-24T18:15:39.121Z,99058.38
2023-05-24T18:18:05.999Z,99058.81
2023-05-24T18:20:32.695Z,99051.31
2023-05-24T18:22:59.548Z,99059.41
2023-05-24T18:25:34.569Z,99059.75
2023-05-24T18:28:01.956Z,99069.38
2023-05-24T18:30:28.656Z,99067.47
2023-05-24T18:35:29.668Z,99073.72
2023-05-24T18:38:01.964Z,99079.38
2023-05-24T18:40:28.509Z,99071.16
2023-05-24T18:42:55.086Z,99071.91
2023-05-24T18:45:21.853Z,99076.00
2023-05-24T18:47:48.390Z,99069.97
2023-05-24T18:50:16.954Z,99074.66
2023-05-24T18:52:46.344Z,99078.16
2023-05-24T18:55:23.249Z,99075.72
2023-05-24T18:57:55.050Z,99081.78
2023-05-24T19:00:22.820Z,99085.88
2023-05-24T19:02:49.840Z,99082.47
2023-05-24T19:05:16.657Z,99090.53
2023-05-24T19:07:43.285Z,99090.31
2023-05-24T19:10:10.223Z,99087.41
2023-05-24T19:12:36.805Z,99089.91
2023-05-24T19:15:10.043Z,99088.56
2023-05-24T19:17:36.640Z,99093.34
2023-05-24T19:20:03.794Z,99091.53
2023-05-24T19:22:33.320Z,99098.38
2023-05-24T19:24:59.901Z,99098.09
2023-05-24T19:27:36.273Z,99104.97
2023-05-24T19:30:05.329Z,99107.28
2023-05-24T19:32:31.886Z,99114.78
2023-05-24T19:34:58.454Z,99110.53
2023-05-24T19:37:24.985Z,99115.81
2023-05-24T19:39:51.509Z,99111.72
2023-05-24T19:42:18.153Z,99108.66
2023-05-24T19:44:44.689Z,99122.09
2023-05-24T19:47:11.235Z,99117.34
2023-05-24T19:49:37.835Z,99130.88
2023-05-24T19:52:07.067Z,99129.78
2023-05-24T19:54:33.602Z,99131.47
2023-05-24T19:57:01.684Z,99130.19
2023-05-24T19:59:28.360Z,99140.03
2023-05-24T20:01:54.988Z,99138.69
2023-05-24T20:04:21.928Z,99147.97
2023-05-24T20:06:48.459Z,99144.53
2023-05-24T20:09:18.745Z,99155.81
2023-05-24T20:11:51.333Z,99158.56
2023-05-24T20:14:18.081Z,99161.31
2023-05-24T20:16:44.727Z,99163.00
2023-05-24T20:19:11.870Z,99164.41
2023-05-24T20:21:38.394Z,99169.41
2023-05-24T20:24:05.467Z,99166.47
2023-05-24T20:26:33.326Z,99169.16
2023-05-24T20:29:05.033Z,99172.75
2023-05-24T20:31:31.665Z,99179.09
2023-05-24T20:33:58.274Z,99172.75
2023-05-24T20:36:30.586Z,99177.47
2023-05-24T20:38:57.120Z,99176.50
2023-05-24T20:41:23.888Z,99180.19
2023-05-24T20:43:51.382Z,99169.09
2023-05-24T20:46:18.148Z,99175.88
2023-05-24T20:48:44.916Z,99174.25
2023-05-24T20:51:11.403Z,99172.66
2023-05-24T20:53:38.924Z,99178.72
2023-05-24T20:56:05.650Z,99181.59
2023-05-24T20:58:32.202Z,99185.34
2023-05-24T21:00:59.212Z,99182.28
2023-05-24T21:03:25.882Z,99192.63
2023-05-24T21:05:52.448Z,99191.63
2023-05-24T21:08:19.047Z,99189.25
2023-05-24T21:10:48.199Z,99195.63
2023-05-24T21:13:14.824Z,99190.69
2023-05-24T21:15:43.758Z,99193.59
2023-05-24T21:18:11.908Z,99194.34
2023-05-24T21:20:38.642Z,99196.53
2023-05-24T21:23:05.164Z,99196.19
2023-05-24T21:25:43.506Z,99201.72
2023-05-24T21:28:13.880Z,99203.31
2023-05-24T21:30:40.391Z,99209.50
2023-05-24T21:33:07.017Z,99212.06
2023-05-24T21:35:33.602Z,99207.34
2023-05-24T21:38:00.638Z,99209.81
2023-05-24T21:40:27.166Z,99208.78
2023-05-24T21:42:53.917Z,99212.50
2023-05-24T21:45:20.480Z,99218.31
2023-05-24T21:47:47.040Z,99214.56
2023-05-24T21:50:13.585Z,99218.34
2023-05-24T21:52:43.142Z,99216.66
2023-05-24T21:55:10.088Z,99215.38
2023-05-24T21:57:36.670Z,99225.16
2023-05-24T22:00:04.113Z,99221.19
2023-05-24T22:02:31.830Z,99224.44
2023-05-24T22:04:58.414Z,99220.47
2023-05-24T22:07:24.912Z,99219.34
2023-05-24T22:12:32.933Z,99219.25
2023-05-24T22:15:03.105Z,99218.06
2023-05-24T22:17:32.744Z,99219.34
2023-05-24T22:20:02.268Z,99218.41
2023-05-24T22:22:29.797Z,99216.31
2023-05-24T22:25:01.840Z,99217.31
2023-05-24T22:27:29.577Z,99222.09
2023-05-24T22:29:56.226Z,99220.63
2023-05-24T22:32:29.483Z,99224.25
2023-05-24T22:34:56.100Z,99223.88
2023-05-24T22:37:22.633Z,99233.75
2023-05-24T22:39:49.183Z,99228.19
2023-05-24T22:42:15.953Z,99220.41
2023-05-24T22:44:42.466Z,99221.16
2023-05-24T22:47:11.914Z,99221.25
2023-05-24T22:49:38.479Z,99226.75
2023-05-24T22:52:06.939Z,99235.75
2023-05-24T22:54:33.498Z,99238.94
2023-05-24T22:57:00.040Z,99233.97
2023-05-24T22:59:26.555Z,99243.56
2023-05-24T23:01:53.181Z,99240.81
2023-05-24T23:04:21.831Z,99241.78
2023-05-24T23:06:52.855Z,99233.88
2023-05-24T23:09:28.822Z,99236.88
2023-05-24T23:11:58.535Z,99236.81
2023-05-24T23:14:25.396Z,99238.25
2023-05-24T23:16:51.955Z,99241.22
2023-05-24T23:19:19.090Z,99229.06
2023-05-24T23:21:45.957Z,99235.72
2023-05-24T23:24:21.899Z,99237.63
2023-05-24T23:26:48.541Z,99238.22
2023-05-24T23:29:15.188Z,99240.97
2023-05-24T23:31:48.117Z,99243.19
2023-05-24T23:34:14.739Z,99238.25
2023-05-24T23:36:45.718Z,99230.41
2023-05-24T23:39:12.643Z,99235.63
2023-05-24T23:41:39.233Z,99239.94
2023-05-24T23:44:05.853Z,99238.66
2023-05-24T23:46:39.902Z,99238.06
2023-05-24T23:49:06.492Z,99230.41
2023-05-24T23:51:33.466Z,99232.56
2023-05-24T23:54:03.099Z,99234.78
2023-05-24T23:56:29.604Z,99232.53
2023-05-24T23:58:56.178Z,99232.13
